SVMG/PMV METAR and TAF weather

Enter ICAO airport designator
Station Type Date Time Source
SVMG METAR 2021/03/05 18:00 UTC NOAA

SVMG 051800Z /////KT 9999 SCT010 XX/XX Q1012 NOSIG


Station Type Date Time Source
SVMG Decoded METAR 2021/03/05 18:00 UTC NOAA

Margarita / Del Carib, Venezuela (SVMG) 10-55N 063-59W
Mar 05, 2021 - 01:00 PM EST / 2021.03.05 1800 UTC
Visibility: greater than 7 mile(s):0
Sky conditions: partly cloudy
Pressure (altimeter): 29.88 in. Hg (1012 hPa)
ob: SVMG 051800Z /////KT 9999 SCT010 XX/XX Q1012 NOSIG
cycle: 18

Station Type Date Time Source
SVMG TAF 2021/03/06 06:03 UTC NOAA

TAF SVMG 060400Z 0606/0706 09008KT 9999 FEW020 SCT100 TX32/0617Z TN24/0604Z PROB30
TEMPO 0606/0610 09010KT 9000 -DZ BKN016

Example: see airport list